PKWA TAF

79.5 °F / 26.4 °C
ENE at 9 MPH
86%
75.0°F / 23.9 °C
29.87" (1011 mb)
10 mile(s)
partly cloudy
2022.06.30 1020 UTC

PKWA TAF

2022/06/30 06:54
TAF PKWA 300546Z 3006/0106 13014KT P6SM VCSH SCT017 BKN120